Time;durP1;ratioP1;P1;durP2;ratioP2;P2;SDS_P1;SDS_P2;PMS_P1;PMS_P2;Temp;Humidity;BMP_temperature;BMP_pressure;BME280_temperature;BME280_humidity;BME280_pressure;Samples;Min_cycle;Max_cycle;Signal;HPM_P1;HPM_P2
2023/12/07 00:01:28;;;;;;;20.88;10.57;;;;;;;;;;4969659;28;20026;-66
2023/12/07 00:03:53;;;;;;;24.92;11.05;;;;;;;;;;4973285;28;20026;-65
2023/12/07 00:06:18;;;;;;;20.08;10.35;;;;;;;;;;4969355;28;20065;-64
2023/12/07 00:08:44;;;;;;;23.80;10.32;;;;;;;;;;4969136;28;20014;-64
2023/12/07 00:11:09;;;;;;;18.25;10.07;;;;;;;;;;4970806;28;20073;-62
2023/12/07 00:13:34;;;;;;;16.45;9.48;;;;;;;;;;4967488;28;20034;-63
2023/12/07 00:15:59;;;;;;;25.00;11.25;;;;;;;;;;4964885;28;20034;-63
2023/12/07 00:18:24;;;;;;;21.00;10.80;;;;;;;;;;4971719;28;20046;-65
2023/12/07 00:20:50;;;;;;;17.65;9.73;;;;;;;;;;4969928;28;20119;-64
2023/12/07 00:23:15;;;;;;;19.98;11.25;;;;;;;;;;4969347;28;20023;-64
2023/12/07 00:25:40;;;;;;;20.33;10.85;;;;;;;;;;4968901;28;20607;-63
2023/12/07 00:28:05;;;;;;;20.02;10.50;;;;;;;;;;4970169;28;20632;-64
2023/12/07 00:30:31;;;;;;;20.88;10.70;;;;;;;;;;4972830;28;20173;-65
2023/12/07 00:32:56;;;;;;;20.27;11.35;;;;;;;;;;4973142;28;20030;-66
2023/12/07 00:35:24;;;;;;;19.67;10.38;;;;;;;;;;4975124;28;20097;-66
2023/12/07 00:37:49;;;;;;;20.23;11.25;;;;;;;;;;4975396;28;20030;-67
2023/12/07 00:40:15;;;;;;;22.85;10.80;;;;;;;;;;4973199;28;20027;-65
2023/12/07 00:42:40;;;;;;;22.70;11.98;;;;;;;;;;4970954;28;20022;-65
2023/12/07 00:45:06;;;;;;;21.05;10.00;;;;;;;;;;4972563;28;20046;-65
2023/12/07 00:47:31;;;;;;;17.05;9.82;;;;;;;;;;4972296;28;20108;-63
2023/12/07 00:49:56;;;;;;;19.23;10.60;;;;;;;;;;4970854;28;20029;-66
2023/12/07 00:52:21;;;;;;;23.33;10.57;;;;;;;;;;4973023;28;20486;-65
2023/12/07 00:54:46;;;;;;;27.92;10.75;;;;;;;;;;4972005;28;20078;-66
2023/12/07 00:57:12;;;;;;;26.05;10.25;;;;;;;;;;4971975;28;20018;-65
2023/12/07 00:59:37;;;;;;;21.65;10.25;;;;;;;;;;4971756;28;20050;-65
2023/12/07 01:02:03;;;;;;;25.83;11.35;;;;;;;;;;4974805;28;20018;-66
2023/12/07 01:04:28;;;;;;;19.85;9.98;;;;;;;;;;4974316;28;20034;-66
2023/12/07 01:06:54;;;;;;;22.55;11.27;;;;;;;;;;4964253;28;20025;-65
2023/12/07 01:09:19;;;;;;;20.75;11.05;;;;;;;;;;4972853;28;20398;-65
2023/12/07 01:11:44;;;;;;;23.75;11.50;;;;;;;;;;4967092;28;20073;-65
2023/12/07 01:14:11;;;;;;;21.38;11.38;;;;;;;;;;4972898;28;20010;-64
2023/12/07 01:16:36;;;;;;;23.67;11.77;;;;;;;;;;4971464;28;20023;-66
2023/12/07 01:19:02;;;;;;;22.80;11.93;;;;;;;;;;4973091;28;20022;-66
2023/12/07 01:21:27;;;;;;;22.48;11.43;;;;;;;;;;4975694;28;20031;-66
2023/12/07 01:23:52;;;;;;;23.88;11.88;;;;;;;;;;4972344;28;20022;-66
2023/12/07 01:26:17;;;;;;;19.75;10.43;;;;;;;;;;4963862;28;20045;-66
2023/12/07 01:28:42;;;;;;;22.25;11.90;;;;;;;;;;4972171;28;20019;-66
2023/12/07 01:31:07;;;;;;;19.70;10.95;;;;;;;;;;4973062;28;20541;-66
2023/12/07 01:33:33;;;;;;;23.83;10.98;;;;;;;;;;4972566;28;20027;-66
2023/12/07 01:35:58;;;;;;;20.50;10.85;;;;;;;;;;4973063;28;20029;-66
2023/12/07 01:38:23;;;;;;;22.85;10.70;;;;;;;;;;4983190;28;20023;-63
2023/12/07 01:40:48;;;;;;;19.70;11.82;;;;;;;;;;4977174;28;20042;-65
2023/12/07 01:43:14;;;;;;;21.48;10.20;;;;;;;;;;4980671;28;20023;-66
2023/12/07 01:45:39;;;;;;;19.02;10.75;;;;;;;;;;4977355;28;20027;-64
2023/12/07 01:48:04;;;;;;;25.77;11.48;;;;;;;;;;4976150;28;20026;-64
2023/12/07 01:50:30;;;;;;;17.58;10.60;;;;;;;;;;4973767;28;20038;-63
2023/12/07 01:52:59;;;;;;;21.40;10.95;;;;;;;;;;4980013;28;20101;-64
2023/12/07 01:55:26;;;;;;;22.55;11.13;;;;;;;;;;4975999;28;20430;-64
2023/12/07 01:57:52;;;;;;;20.90;11.40;;;;;;;;;;4964176;28;20015;-64
2023/12/07 02:00:17;;;;;;;24.23;11.07;;;;;;;;;;4971260;28;20065;-65
2023/12/07 02:02:43;;;;;;;22.35;12.10;;;;;;;;;;4971907;28;20434;-63
2023/12/07 02:05:09;;;;;;;21.30;11.10;;;;;;;;;;4972102;28;20406;-64
2023/12/07 02:07:34;;;;;;;21.98;11.38;;;;;;;;;;4971253;28;20023;-64
2023/12/07 02:09:59;;;;;;;27.98;11.88;;;;;;;;;;4971315;28;20309;-64
2023/12/07 02:12:25;;;;;;;20.65;11.40;;;;;;;;;;4971817;28;20026;-64
2023/12/07 02:14:50;;;;;;;27.42;11.77;;;;;;;;;;4970621;28;20015;-65
2023/12/07 02:17:21;;;;;;;28.38;12.43;;;;;;;;;;4971277;28;20102;-64
2023/12/07 02:20:04;;;;;;;24.20;12.07;;;;;;;;;;4971465;28;20026;-65
2023/12/07 02:22:32;;;;;;;25.63;11.57;;;;;;;;;;4971511;28;20078;-63
2023/12/07 02:25:04;;;;;;;23.85;11.60;;;;;;;;;;4966290;28;20085;-65
2023/12/07 02:27:39;;;;;;;21.67;11.50;;;;;;;;;;4967955;28;20562;-65
2023/12/07 02:30:05;;;;;;;23.40;11.10;;;;;;;;;;4965161;28;20089;-65
2023/12/07 02:32:30;;;;;;;22.63;11.48;;;;;;;;;;4971301;28;20023;-63
2023/12/07 02:34:56;;;;;;;22.67;11.98;;;;;;;;;;4974973;28;20072;-65
2023/12/07 02:37:21;;;;;;;25.10;12.57;;;;;;;;;;4977319;28;20461;-66
2023/12/07 02:39:47;;;;;;;27.15;12.10;;;;;;;;;;4970734;28;20050;-65
2023/12/07 02:42:13;;;;;;;26.83;12.40;;;;;;;;;;4970966;28;20021;-64
2023/12/07 02:44:38;;;;;;;22.17;11.38;;;;;;;;;;4969857;28;20085;-63
2023/12/07 02:47:03;;;;;;;25.75;12.38;;;;;;;;;;4970864;28;20015;-64
2023/12/07 02:49:28;;;;;;;25.58;11.30;;;;;;;;;;4966110;28;20026;-65
2023/12/07 02:51:54;;;;;;;25.55;12.52;;;;;;;;;;4977264;28;20084;-65
2023/12/07 02:54:19;;;;;;;23.65;11.90;;;;;;;;;;4970766;28;20518;-65
2023/12/07 02:56:44;;;;;;;23.05;11.80;;;;;;;;;;4970349;28;20031;-65
2023/12/07 02:59:09;;;;;;;30.75;13.15;;;;;;;;;;4971055;28;20482;-62
2023/12/07 03:01:34;;;;;;;23.02;12.32;;;;;;;;;;4970501;28;20097;-65
2023/12/07 03:04:00;;;;;;;20.92;11.00;;;;;;;;;;4970940;28;20386;-64
2023/12/07 03:06:25;;;;;;;25.38;12.48;;;;;;;;;;4971679;28;20038;-66
2023/12/07 03:08:50;;;;;;;26.25;13.18;;;;;;;;;;4970316;28;20023;-65
2023/12/07 03:11:15;;;;;;;22.85;11.88;;;;;;;;;;4970680;28;20015;-66
2023/12/07 03:13:40;;;;;;;22.25;12.07;;;;;;;;;;4961524;28;20019;-66
2023/12/07 03:16:09;;;;;;;24.45;12.15;;;;;;;;;;4968406;28;20077;-65
2023/12/07 03:18:35;;;;;;;27.98;13.00;;;;;;;;;;4970600;28;20023;-66
2023/12/07 03:21:01;;;;;;;26.40;13.02;;;;;;;;;;4975911;28;20019;-65
2023/12/07 03:23:26;;;;;;;26.30;12.23;;;;;;;;;;4970015;28;20034;-66
2023/12/07 03:25:51;;;;;;;26.52;13.00;;;;;;;;;;4977174;28;20015;-65
2023/12/07 03:28:17;;;;;;;26.90;12.98;;;;;;;;;;4977450;28;20478;-65
2023/12/07 03:30:42;;;;;;;25.95;11.88;;;;;;;;;;4970923;28;20699;-65
2023/12/07 03:33:07;;;;;;;24.17;12.88;;;;;;;;;;4978256;28;20169;-63
2023/12/07 03:35:33;;;;;;;26.77;12.55;;;;;;;;;;4977738;28;20556;-65
2023/12/07 03:37:58;;;;;;;24.77;12.82;;;;;;;;;;4980608;28;20014;-65
2023/12/07 03:40:23;;;;;;;25.45;12.73;;;;;;;;;;4976303;28;20436;-66
2023/12/07 03:42:48;;;;;;;27.70;13.90;;;;;;;;;;4975592;28;20038;-65
2023/12/07 03:45:14;;;;;;;26.75;13.45;;;;;;;;;;4974529;28;20386;-65
2023/12/07 03:47:39;;;;;;;26.35;14.25;;;;;;;;;;4979320;28;20022;-65
2023/12/07 03:50:05;;;;;;;27.02;13.18;;;;;;;;;;4971005;28;20030;-66
2023/12/07 03:52:30;;;;;;;30.77;14.10;;;;;;;;;;4975388;28;20080;-65
2023/12/07 03:54:55;;;;;;;27.27;13.02;;;;;;;;;;4976214;28;20061;-65
2023/12/07 03:57:20;;;;;;;28.58;13.13;;;;;;;;;;4970731;28;20023;-66
2023/12/07 03:59:46;;;;;;;22.98;11.98;;;;;;;;;;4968867;28;20755;-65
2023/12/07 04:02:11;;;;;;;25.13;12.77;;;;;;;;;;4970367;28;20038;-65
2023/12/07 04:04:38;;;;;;;26.90;13.32;;;;;;;;;;4973328;28;20402;-65
2023/12/07 04:07:03;;;;;;;24.52;12.90;;;;;;;;;;4975745;28;20484;-61
2023/12/07 04:09:30;;;;;;;31.90;14.80;;;;;;;;;;4973340;28;20042;-66
2023/12/07 04:11:55;;;;;;;25.10;13.73;;;;;;;;;;4968520;28;20033;-66
2023/12/07 04:14:21;;;;;;;28.60;13.10;;;;;;;;;;4974045;28;20023;-65
2023/12/07 04:16:46;;;;;;;25.38;13.07;;;;;;;;;;4972283;28;20089;-64
2023/12/07 04:19:11;;;;;;;27.38;13.50;;;;;;;;;;4973948;28;20098;-65
2023/12/07 04:21:36;;;;;;;24.30;12.18;;;;;;;;;;4981764;28;20022;-63
2023/12/07 04:24:01;;;;;;;23.80;12.70;;;;;;;;;;4977862;28;20025;-65
2023/12/07 04:26:27;;;;;;;24.10;12.55;;;;;;;;;;4983053;28;20395;-65
2023/12/07 04:28:52;;;;;;;25.58;12.85;;;;;;;;;;4980222;28;20101;-65
2023/12/07 04:31:17;;;;;;;28.17;13.05;;;;;;;;;;4977870;28;20080;-65
2023/12/07 04:33:42;;;;;;;26.67;12.05;;;;;;;;;;4981794;28;20026;-65
2023/12/07 04:36:08;;;;;;;28.38;13.15;;;;;;;;;;4978833;28;20026;-65
2023/12/07 04:38:33;;;;;;;25.60;13.13;;;;;;;;;;4977768;28;20030;-64
2023/12/07 04:40:58;;;;;;;24.45;11.93;;;;;;;;;;4980110;28;20599;-65
2023/12/07 04:43:23;;;;;;;25.02;12.70;;;;;;;;;;4977583;28;20018;-65
2023/12/07 04:45:49;;;;;;;25.25;13.07;;;;;;;;;;4978923;28;20057;-63
2023/12/07 04:48:14;;;;;;;29.52;13.13;;;;;;;;;;4976342;28;20489;-65
2023/12/07 04:50:39;;;;;;;25.02;12.73;;;;;;;;;;4978931;28;20463;-64
2023/12/07 04:53:04;;;;;;;26.88;12.60;;;;;;;;;;4980950;28;20070;-65
2023/12/07 04:55:30;;;;;;;26.60;14.05;;;;;;;;;;4980405;28;20018;-66
2023/12/07 04:57:55;;;;;;;27.17;12.70;;;;;;;;;;4968421;28;20014;-65
2023/12/07 05:00:21;;;;;;;23.17;11.40;;;;;;;;;;4974732;28;20022;-64
2023/12/07 05:02:46;;;;;;;24.02;12.38;;;;;;;;;;4973578;28;20023;-66
2023/12/07 05:05:11;;;;;;;26.35;12.48;;;;;;;;;;4972865;28;20022;-65
2023/12/07 05:07:37;;;;;;;25.30;12.10;;;;;;;;;;4980727;28;20277;-66
2023/12/07 05:10:02;;;;;;;26.83;12.70;;;;;;;;;;4973189;28;20042;-67
2023/12/07 05:12:28;;;;;;;26.35;13.30;;;;;;;;;;4975437;28;20084;-67
2023/12/07 05:14:53;;;;;;;33.95;12.85;;;;;;;;;;4971646;28;20082;-66
2023/12/07 05:17:18;;;;;;;23.40;12.50;;;;;;;;;;4972338;28;20021;-65
2023/12/07 05:19:44;;;;;;;28.95;12.38;;;;;;;;;;4972946;28;20033;-66
2023/12/07 05:22:09;;;;;;;28.27;13.88;;;;;;;;;;4979990;28;20482;-66
2023/12/07 05:24:35;;;;;;;27.98;13.23;;;;;;;;;;4970276;28;20042;-65
2023/12/07 05:27:00;;;;;;;27.63;13.27;;;;;;;;;;4965551;28;20033;-64
2023/12/07 05:29:25;;;;;;;26.50;12.13;;;;;;;;;;4972374;28;20380;-65
2023/12/07 05:31:51;;;;;;;23.40;13.10;;;;;;;;;;4972928;28;20103;-64
2023/12/07 05:34:16;;;;;;;25.40;12.80;;;;;;;;;;4976924;28;20057;-65
2023/12/07 05:36:41;;;;;;;25.60;12.40;;;;;;;;;;4972909;28;20050;-65
2023/12/07 05:39:07;;;;;;;28.73;13.35;;;;;;;;;;4974902;28;20026;-65
2023/12/07 05:41:32;;;;;;;23.10;11.50;;;;;;;;;;4972329;28;20019;-66
2023/12/07 05:43:57;;;;;;;34.13;14.80;;;;;;;;;;4970460;28;20030;-65
2023/12/07 05:46:22;;;;;;;24.70;13.45;;;;;;;;;;4970723;28;20030;-64
2023/12/07 05:48:48;;;;;;;24.95;13.93;;;;;;;;;;4967206;28;20053;-65
2023/12/07 05:51:14;;;;;;;23.92;12.63;;;;;;;;;;4976661;28;20165;-64
2023/12/07 05:53:39;;;;;;;28.98;12.73;;;;;;;;;;4973001;28;20014;-65
2023/12/07 05:56:04;;;;;;;28.75;12.52;;;;;;;;;;4971226;28;20072;-64
2023/12/07 05:58:30;;;;;;;28.40;14.82;;;;;;;;;;4966842;28;20018;-63
2023/12/07 06:00:55;;;;;;;27.90;13.25;;;;;;;;;;4971245;28;20119;-65
2023/12/07 06:03:20;;;;;;;25.38;12.80;;;;;;;;;;4969563;28;20394;-66
2023/12/07 06:05:46;;;;;;;28.95;14.20;;;;;;;;;;4969963;28;20419;-66
2023/12/07 06:08:12;;;;;;;28.52;15.25;;;;;;;;;;4972367;28;20490;-66
2023/12/07 06:10:38;;;;;;;27.95;14.75;;;;;;;;;;4970144;28;20031;-66
2023/12/07 06:13:04;;;;;;;27.33;13.98;;;;;;;;;;4966124;28;20022;-63
2023/12/07 06:15:29;;;;;;;28.75;15.07;;;;;;;;;;4970528;28;20022;-65
2023/12/07 06:17:55;;;;;;;27.98;13.80;;;;;;;;;;4970282;28;20507;-66
2023/12/07 06:20:20;;;;;;;26.10;13.18;;;;;;;;;;4971380;28;20029;-65
2023/12/07 06:22:45;;;;;;;29.00;13.48;;;;;;;;;;4973397;28;20027;-67
2023/12/07 06:25:11;;;;;;;30.27;14.88;;;;;;;;;;4970240;28;20587;-64
2023/12/07 06:27:36;;;;;;;27.55;14.70;;;;;;;;;;4970348;28;20038;-63
2023/12/07 06:30:05;;;;;;;32.70;14.27;;;;;;;;;;4970836;28;20053;-65
2023/12/07 06:32:30;;;;;;;30.23;14.30;;;;;;;;;;4971591;28;20030;-69
2023/12/07 06:34:56;;;;;;;26.90;14.85;;;;;;;;;;4971401;28;20029;-65
2023/12/07 06:37:21;;;;;;;38.35;14.80;;;;;;;;;;4976279;28;20053;-66
2023/12/07 06:39:48;;;;;;;28.00;13.80;;;;;;;;;;4966294;28;20467;-66
2023/12/07 06:42:13;;;;;;;30.38;14.48;;;;;;;;;;4965696;28;20054;-66
2023/12/07 06:44:39;;;;;;;35.13;15.65;;;;;;;;;;4969870;28;20058;-65
2023/12/07 06:47:04;;;;;;;29.77;14.60;;;;;;;;;;4969989;28;20438;-66
2023/12/07 06:49:30;;;;;;;28.05;14.60;;;;;;;;;;4966963;28;20022;-66
2023/12/07 06:51:55;;;;;;;28.92;14.40;;;;;;;;;;4974453;28;20030;-64
2023/12/07 06:54:20;;;;;;;30.75;15.70;;;;;;;;;;4970488;28;20015;-67
2023/12/07 06:56:46;;;;;;;28.50;13.88;;;;;;;;;;4969600;28;20026;-66
2023/12/07 06:59:11;;;;;;;29.00;14.48;;;;;;;;;;4970181;28;20042;-66
2023/12/07 07:01:37;;;;;;;27.67;13.32;;;;;;;;;;4970181;28;20019;-66
2023/12/07 07:04:03;;;;;;;31.17;14.93;;;;;;;;;;4971235;28;20062;-66
2023/12/07 07:06:28;;;;;;;28.95;14.27;;;;;;;;;;4972266;28;20062;-64
2023/12/07 07:08:53;;;;;;;29.73;13.50;;;;;;;;;;4970278;28;20097;-66
2023/12/07 07:11:18;;;;;;;30.10;14.15;;;;;;;;;;4965448;28;20023;-67
2023/12/07 07:13:43;;;;;;;26.77;13.45;;;;;;;;;;4968977;28;20050;-66
2023/12/07 07:16:10;;;;;;;23.27;12.75;;;;;;;;;;4969052;28;20044;-65
2023/12/07 07:18:37;;;;;;;25.02;13.23;;;;;;;;;;4970201;28;20029;-66
2023/12/07 07:21:04;;;;;;;24.73;13.50;;;;;;;;;;4969932;28;20537;-66
2023/12/07 07:23:29;;;;;;;24.88;12.48;;;;;;;;;;4970942;28;20029;-66
2023/12/07 07:25:54;;;;;;;22.80;12.13;;;;;;;;;;4969621;28;20015;-67
2023/12/07 07:28:20;;;;;;;24.90;12.93;;;;;;;;;;4969470;28;20109;-65
2023/12/07 07:30:45;;;;;;;26.02;13.77;;;;;;;;;;4970626;28;20109;-66
2023/12/07 07:33:10;;;;;;;30.95;12.63;;;;;;;;;;4970326;28;20426;-65
2023/12/07 07:35:36;;;;;;;28.60;13.10;;;;;;;;;;4969866;28;20026;-65
2023/12/07 07:38:01;;;;;;;28.10;13.98;;;;;;;;;;4972277;28;20037;-65
2023/12/07 07:40:26;;;;;;;30.80;13.95;;;;;;;;;;4970837;28;20023;-64
2023/12/07 07:42:51;;;;;;;25.60;14.15;;;;;;;;;;4967985;28;20348;-65
2023/12/07 07:45:16;;;;;;;30.58;13.20;;;;;;;;;;4969875;28;20553;-63
2023/12/07 07:47:42;;;;;;;27.58;14.02;;;;;;;;;;4969112;28;20027;-66
2023/12/07 07:50:07;;;;;;;28.75;13.90;;;;;;;;;;4965699;28;20030;-66
2023/12/07 07:52:33;;;;;;;30.20;14.50;;;;;;;;;;4962404;28;20105;-65
2023/12/07 07:54:59;;;;;;;25.17;13.32;;;;;;;;;;4969800;28;20045;-66
2023/12/07 07:57:24;;;;;;;29.00;14.00;;;;;;;;;;4969169;28;20011;-66
2023/12/07 07:59:49;;;;;;;29.90;12.85;;;;;;;;;;4968971;28;20014;-66
2023/12/07 08:02:14;;;;;;;29.42;12.23;;;;;;;;;;4970055;28;20110;-66
2023/12/07 08:04:40;;;;;;;30.20;14.38;;;;;;;;;;4969731;28;20408;-67
2023/12/07 08:07:07;;;;;;;23.85;12.23;;;;;;;;;;4969460;28;20090;-65
2023/12/07 08:09:32;;;;;;;30.02;14.23;;;;;;;;;;4970113;28;20026;-65
2023/12/07 08:11:58;;;;;;;26.85;13.20;;;;;;;;;;4963914;28;20030;-66
2023/12/07 08:14:23;;;;;;;26.48;12.20;;;;;;;;;;4969413;28;20023;-69
2023/12/07 08:16:48;;;;;;;24.10;12.15;;;;;;;;;;4967899;28;20046;-66
2023/12/07 08:19:13;;;;;;;20.20;11.35;;;;;;;;;;4969456;28;20019;-65
2023/12/07 08:21:39;;;;;;;22.42;12.20;;;;;;;;;;4970344;28;20022;-68
2023/12/07 08:24:05;;;;;;;28.52;13.25;;;;;;;;;;4963425;28;20054;-67
2023/12/07 08:26:30;;;;;;;25.05;12.18;;;;;;;;;;4964140;28;20034;-65
2023/12/07 08:28:56;;;;;;;27.40;12.82;;;;;;;;;;4970505;28;20073;-67
2023/12/07 08:31:23;;;;;;;25.83;11.98;;;;;;;;;;4965017;28;20376;-67
2023/12/07 08:33:48;;;;;;;27.77;13.20;;;;;;;;;;4961981;28;20030;-64
2023/12/07 08:36:13;;;;;;;26.40;12.30;;;;;;;;;;4968499;28;20023;-67
2023/12/07 08:38:38;;;;;;;23.95;11.98;;;;;;;;;;4971268;28;20028;-65
2023/12/07 08:41:03;;;;;;;22.20;11.77;;;;;;;;;;4975723;28;20027;-64
2023/12/07 08:43:30;;;;;;;21.77;11.48;;;;;;;;;;4967030;28;20023;-64
2023/12/07 08:45:55;;;;;;;25.13;11.80;;;;;;;;;;4964666;28;20422;-65
2023/12/07 08:48:21;;;;;;;29.83;11.80;;;;;;;;;;4963710;28;20039;-66
2023/12/07 08:50:46;;;;;;;25.42;11.30;;;;;;;;;;4967507;28;20031;-65
2023/12/07 08:53:11;;;;;;;24.13;11.77;;;;;;;;;;4964616;28;20031;-66
2023/12/07 08:55:36;;;;;;;23.42;12.85;;;;;;;;;;4977681;28;20022;-65
2023/12/07 08:58:04;;;;;;;27.48;12.43;;;;;;;;;;4964705;28;20026;-67
2023/12/07 09:00:30;;;;;;;22.83;11.63;;;;;;;;;;4960444;28;20023;-66
2023/12/07 09:02:55;;;;;;;24.92;11.63;;;;;;;;;;4972848;28;20037;-66
2023/12/07 09:05:20;;;;;;;28.00;13.70;;;;;;;;;;4974182;28;20716;-65
2023/12/07 09:07:45;;;;;;;24.60;13.25;;;;;;;;;;4973102;28;20066;-68
2023/12/07 09:10:11;;;;;;;23.50;12.05;;;;;;;;;;4973068;28;20022;-65
2023/12/07 09:12:36;;;;;;;26.13;12.05;;;;;;;;;;4970854;28;20037;-66
2023/12/07 09:15:02;;;;;;;24.63;11.60;;;;;;;;;;4975643;28;20041;-65
2023/12/07 09:17:27;;;;;;;25.27;11.65;;;;;;;;;;4967576;28;20402;-66
2023/12/07 09:19:53;;;;;;;20.73;11.82;;;;;;;;;;4973681;28;20031;-66
2023/12/07 09:22:19;;;;;;;27.17;13.23;;;;;;;;;;4972427;28;20034;-67
2023/12/07 09:24:46;;;;;;;27.00;13.02;;;;;;;;;;4972376;28;20045;-66
2023/12/07 09:27:11;;;;;;;23.45;12.07;;;;;;;;;;4974074;28;20111;-66
2023/12/07 09:29:37;;;;;;;21.13;11.65;;;;;;;;;;4972166;28;20130;-66
2023/12/07 09:32:02;;;;;;;27.98;12.73;;;;;;;;;;4974362;28;20038;-66
2023/12/07 09:34:27;;;;;;;24.27;11.88;;;;;;;;;;4973168;28;20077;-65
2023/12/07 09:37:05;;;;;;;22.15;10.98;;;;;;;;;;4973168;28;20022;-66
2023/12/07 09:39:30;;;;;;;26.83;12.90;;;;;;;;;;4974489;28;20506;-66
2023/12/07 09:41:55;;;;;;;27.92;12.55;;;;;;;;;;4972391;28;20050;-66
2023/12/07 09:44:21;;;;;;;30.02;11.85;;;;;;;;;;4976183;28;20853;-65
2023/12/07 09:46:46;;;;;;;21.48;12.10;;;;;;;;;;4974044;28;20408;-65
2023/12/07 09:49:11;;;;;;;26.55;12.68;;;;;;;;;;4974523;28;20025;-67
2023/12/07 09:51:37;;;;;;;24.92;12.48;;;;;;;;;;4973992;28;20613;-64
2023/12/07 09:54:02;;;;;;;21.10;11.55;;;;;;;;;;4972642;28;20057;-65
2023/12/07 09:56:28;;;;;;;27.52;13.07;;;;;;;;;;4971571;28;20045;-66
2023/12/07 09:58:53;;;;;;;28.90;12.73;;;;;;;;;;4972962;28;20022;-65
2023/12/07 10:01:18;;;;;;;26.20;12.50;;;;;;;;;;4972303;28;20031;-66
2023/12/07 10:03:46;;;;;;;27.48;13.27;;;;;;;;;;4971494;28;20022;-66
2023/12/07 10:06:12;;;;;;;22.60;11.75;;;;;;;;;;4976368;28;20030;-66
2023/12/07 10:08:37;;;;;;;24.23;12.90;;;;;;;;;;4976053;28;20050;-65
2023/12/07 10:11:05;;;;;;;29.83;12.23;;;;;;;;;;4969712;28;20106;-65
2023/12/07 10:13:30;;;;;;;28.63;13.38;;;;;;;;;;4967670;28;20030;-66
2023/12/07 10:16:25;;;;;;;21.45;11.70;;;;;;;;;;4966511;28;20034;-65
2023/12/07 10:18:50;;;;;;;27.77;12.50;;;;;;;;;;4966045;28;20447;-66
2023/12/07 10:21:15;;;;;;;25.05;13.00;;;;;;;;;;4971549;28;20099;-65
2023/12/07 10:23:43;;;;;;;23.70;13.38;;;;;;;;;;4966646;28;20029;-65
2023/12/07 10:26:10;;;;;;;26.95;13.05;;;;;;;;;;4973171;28;20121;-65
2023/12/07 10:28:36;;;;;;;29.85;13.80;;;;;;;;;;4970928;28;20022;-67
2023/12/07 10:31:02;;;;;;;26.13;12.35;;;;;;;;;;4970402;28;20015;-64
2023/12/07 10:33:27;;;;;;;26.98;12.40;;;;;;;;;;4970731;28;20110;-66
2023/12/07 10:35:52;;;;;;;23.70;11.70;;;;;;;;;;4971781;28;20014;-65
2023/12/07 10:38:19;;;;;;;26.67;13.73;;;;;;;;;;4969245;28;20506;-65
2023/12/07 10:40:45;;;;;;;24.63;12.75;;;;;;;;;;4970604;28;20070;-66
2023/12/07 10:43:11;;;;;;;30.55;13.32;;;;;;;;;;4967117;28;20050;-65
2023/12/07 10:45:37;;;;;;;34.67;13.55;;;;;;;;;;4969539;28;20018;-65
2023/12/07 10:48:04;;;;;;;30.02;13.02;;;;;;;;;;4968763;28;20027;-66
2023/12/07 10:50:31;;;;;;;28.33;12.55;;;;;;;;;;4966838;28;20088;-64
2023/12/07 10:52:59;;;;;;;32.67;12.73;;;;;;;;;;4970308;28;20023;-64
2023/12/07 10:55:28;;;;;;;28.80;13.32;;;;;;;;;;4967571;28;20031;-65
2023/12/07 10:57:54;;;;;;;;;;;;;;;;;;4968271;28;20026;-67
2023/12/07 11:00:19;;;;;;;25.23;11.93;;;;;;;;;;4961265;28;20089;-65
2023/12/07 11:02:45;;;;;;;29.40;12.30;;;;;;;;;;4967508;28;20041;-65
2023/12/07 11:05:10;;;;;;;27.08;13.05;;;;;;;;;;4959551;28;20019;-65
2023/12/07 11:07:47;;;;;;;25.55;13.13;;;;;;;;;;4968198;28;20073;-65
2023/12/07 11:10:16;;;;;;;28.65;13.65;;;;;;;;;;4969242;28;20031;-62
2023/12/07 11:12:41;;;;;;;24.55;13.70;;;;;;;;;;4958836;28;20042;-65
2023/12/07 11:15:07;;;;;;;31.08;13.27;;;;;;;;;;4965823;28;20027;-64
2023/12/07 11:17:55;;;;;;;29.08;13.35;;;;;;;;;;4965474;28;20034;-64
2023/12/07 11:20:21;;;;;;;27.50;13.98;;;;;;;;;;4970514;28;20094;-71
2023/12/07 11:22:48;;;;;;;27.52;12.48;;;;;;;;;;4978023;28;20092;-66
2023/12/07 11:25:14;;;;;;;27.95;12.95;;;;;;;;;;4975114;28;20038;-65
2023/12/07 11:27:40;;;;;;;26.50;13.27;;;;;;;;;;4971438;28;20037;-66
2023/12/07 11:30:06;;;;;;;26.02;13.45;;;;;;;;;;4969187;28;20023;-66
2023/12/07 11:32:32;;;;;;;27.33;14.07;;;;;;;;;;4970954;28;20022;-66
2023/12/07 11:35:04;;;;;;;29.48;15.30;;;;;;;;;;4976870;28;20022;-66
2023/12/07 11:37:49;;;;;;;29.75;14.43;;;;;;;;;;4974452;28;20081;-66
2023/12/07 11:40:15;;;;;;;26.48;13.55;;;;;;;;;;4969461;28;20109;-68
2023/12/07 11:42:43;;;;;;;28.40;13.70;;;;;;;;;;4969768;28;20504;-65
2023/12/07 11:45:08;;;;;;;30.25;13.70;;;;;;;;;;4969412;28;20023;-64
2023/12/07 11:47:33;;;;;;;27.58;13.75;;;;;;;;;;4969131;28;20362;-65
2023/12/07 11:50:02;;;;;;;24.92;12.88;;;;;;;;;;4965883;28;20029;-65
2023/12/07 11:52:28;;;;;;;26.33;13.25;;;;;;;;;;4977033;28;20034;-66
2023/12/07 11:54:53;;;;;;;29.38;13.20;;;;;;;;;;4972243;28;20117;-67
2023/12/07 11:57:18;;;;;;;29.92;13.20;;;;;;;;;;4969492;28;20034;-66
2023/12/07 11:59:44;;;;;;;29.38;13.20;;;;;;;;;;4969173;28;20023;-66
2023/12/07 12:02:12;;;;;;;26.10;12.77;;;;;;;;;;4970254;28;20023;-65
2023/12/07 12:04:38;;;;;;;31.52;14.20;;;;;;;;;;4968378;28;20544;-66
2023/12/07 12:07:03;;;;;;;31.02;14.45;;;;;;;;;;4974237;28;20022;-66
2023/12/07 12:09:28;;;;;;;27.75;14.15;;;;;;;;;;4970029;28;20033;-66
2023/12/07 12:11:54;;;;;;;25.80;13.23;;;;;;;;;;4975568;28;20019;-67
2023/12/07 12:14:19;;;;;;;23.80;13.48;;;;;;;;;;4969904;28;20023;-65
2023/12/07 12:16:45;;;;;;;25.42;12.45;;;;;;;;;;4970382;28;20015;-66
2023/12/07 12:19:10;;;;;;;27.52;12.77;;;;;;;;;;4967132;28;20447;-64
2023/12/07 12:21:38;;;;;;;23.15;12.23;;;;;;;;;;4970274;28;20023;-65
2023/12/07 12:24:03;;;;;;;26.60;13.63;;;;;;;;;;4970592;28;20019;-65
2023/12/07 12:26:29;;;;;;;26.52;12.65;;;;;;;;;;4972997;28;20126;-66
2023/12/07 12:28:54;;;;;;;23.27;12.70;;;;;;;;;;5027380;23;20080;-69
2023/12/07 12:31:20;;;;;;;29.27;13.70;;;;;;;;;;5019918;28;20030;-70
2023/12/07 12:33:47;;;;;;;25.23;12.23;;;;;;;;;;5012575;28;20141;-69
2023/12/07 12:36:12;;;;;;;26.13;13.93;;;;;;;;;;5009541;28;20543;-69
2023/12/07 12:38:39;;;;;;;27.00;12.48;;;;;;;;;;5006589;28;20097;-71
2023/12/07 12:41:04;;;;;;;26.60;12.90;;;;;;;;;;4997623;28;20434;-71
2023/12/07 12:43:30;;;;;;;23.35;11.75;;;;;;;;;;4994255;28;20106;-70
2023/12/07 12:45:57;;;;;;;23.52;12.68;;;;;;;;;;4997443;28;20077;-70
2023/12/07 12:48:22;;;;;;;25.30;13.40;;;;;;;;;;4996923;28;20480;-70
2023/12/07 12:50:48;;;;;;;25.25;12.95;;;;;;;;;;4997391;28;20065;-70
2023/12/07 12:53:14;;;;;;;24.98;11.93;;;;;;;;;;4998436;28;20092;-71
2023/12/07 12:55:40;;;;;;;24.38;13.13;;;;;;;;;;5002691;28;20057;-71
2023/12/07 12:58:07;;;;;;;25.63;11.65;;;;;;;;;;4995434;28;20022;-71
2023/12/07 13:00:35;;;;;;;26.25;12.85;;;;;;;;;;4999958;28;20026;-69
2023/12/07 13:03:03;;;;;;;29.55;12.30;;;;;;;;;;4996089;28;20033;-70
2023/12/07 13:05:28;;;;;;;23.77;11.07;;;;;;;;;;5000882;28;20022;-71
2023/12/07 13:07:53;;;;;;;23.98;11.40;;;;;;;;;;4989907;28;20091;-69
2023/12/07 13:10:19;;;;;;;23.05;11.27;;;;;;;;;;4996294;28;20037;-70
2023/12/07 13:12:45;;;;;;;27.25;11.65;;;;;;;;;;4994002;28;20040;-70
2023/12/07 13:15:10;;;;;;;23.92;11.35;;;;;;;;;;4991281;28;20034;-70
2023/12/07 13:17:35;;;;;;;35.08;12.48;;;;;;;;;;4990377;28;20079;-70
2023/12/07 13:20:01;;;;;;;22.88;11.68;;;;;;;;;;4992738;28;20018;-71
2023/12/07 13:22:26;;;;;;;20.38;11.02;;;;;;;;;;4993491;28;20049;-70
2023/12/07 13:24:52;;;;;;;28.17;12.07;;;;;;;;;;4995956;28;20132;-69
2023/12/07 13:27:17;;;;;;;22.15;11.02;;;;;;;;;;4999543;28;20485;-70
2023/12/07 13:29:43;;;;;;;24.33;11.10;;;;;;;;;;5000328;28;20049;-70
2023/12/07 13:32:08;;;;;;;23.33;11.30;;;;;;;;;;5004107;28;20037;-71
2023/12/07 13:34:33;;;;;;;22.60;10.95;;;;;;;;;;4994142;28;20030;-69
2023/12/07 13:36:59;;;;;;;22.10;11.07;;;;;;;;;;4991195;28;20471;-70
2023/12/07 13:39:26;;;;;;;24.42;11.77;;;;;;;;;;4999470;28;20014;-76
2023/12/07 13:41:51;;;;;;;23.20;11.90;;;;;;;;;;4999651;28;20560;-70
2023/12/07 13:44:17;;;;;;;20.45;10.25;;;;;;;;;;4994658;28;20026;-69
2023/12/07 13:46:44;;;;;;;17.92;9.93;;;;;;;;;;4993123;28;20089;-70
2023/12/07 13:49:09;;;;;;;21.73;10.32;;;;;;;;;;4992794;28;20026;-69
2023/12/07 13:51:34;;;;;;;20.67;11.07;;;;;;;;;;4991320;28;20018;-69
2023/12/07 13:54:00;;;;;;;23.35;11.70;;;;;;;;;;4991768;28;20015;-69
2023/12/07 13:56:26;;;;;;;23.02;11.10;;;;;;;;;;4992507;28;20037;-70
2023/12/07 13:58:51;;;;;;;18.30;10.52;;;;;;;;;;4991147;28;20091;-69
2023/12/07 14:01:17;;;;;;;21.90;11.88;;;;;;;;;;4990596;28;20014;-70
2023/12/07 14:03:42;;;;;;;21.02;11.13;;;;;;;;;;4988526;28;20250;-68
2023/12/07 14:06:08;;;;;;;20.05;10.75;;;;;;;;;;4999045;28;20551;-68
2023/12/07 14:08:33;;;;;;;22.67;11.65;;;;;;;;;;4997477;28;20026;-68
2023/12/07 14:10:58;;;;;;;23.13;10.77;;;;;;;;;;4992667;28;20131;-69